KRWF/RWF METAR and TAF weather

Enter ICAO airport designator
Station Type Date Time Source
KRWF METAR 2022/06/29 00:53 UTC NOAA

KRWF 290053Z AUTO 00000KT 10SM CLR 28/13 A3004 RMK AO2 SLP166 T02780133


Station Type Date Time Source
KRWF Decoded METAR 2022/06/29 00:53 UTC NOAA

REDWOOD FALLS MUNICIPAL, MN, United States (KRWF) 44-33N 95-05W 311M
Jun 28, 2022 - 08:53 PM EDT / 2022.06.29 0053 UTC
Wind: Calm:0
Visibility: 10 mile(s):0
Sky conditions: clear
Temperature: 82.0 F (27.8 C)
Dew Point: 55.9 F (13.3 C)
Relative Humidity: 40%
Pressure (altimeter): 30.04 in. Hg (1017 hPa)
ob: KRWF 290053Z AUTO 00000KT 10SM CLR 28/13 A3004 RMK AO2 SLP166 T02780133
cycle: 1

Station Type Date Time Source
KRWF TAF 2022/06/28 18:28 UTC NOAA

TAF KRWF 281726Z 2818/2918 VRB03KT P6SM SKC
FM282000 34008KT P6SM SKC
FM290300 VRB04KT P6SM SKC
FM291600 15014G22KT P6SM SKC

Example: see airport list